Time;durP1;ratioP1;P1;durP2;ratioP2;P2;SDS_P1;SDS_P2;PMS_P1;PMS_P2;Temp;Humidity;BMP_temperature;BMP_pressure;BME280_temperature;BME280_humidity;BME280_pressure;Samples;Min_cycle;Max_cycle;Signal;HPM_P1;HPM_P2
2021/12/04 00:07:38;;;;;;;4.88;2.53;;;5.70;56.30;;;4.02;60.44;99958.78;8170939;29;20052;-81
2021/12/04 00:12:04;;;;;;;2.40;2.00;;;5.70;56.30;;;4.01;60.46;99955.34;8148794;29;20130;-80
2021/12/04 00:16:25;;;;;;;2.30;2.10;;;5.70;56.30;;;4.04;60.49;99952.66;8136878;29;20476;-80
2021/12/04 00:20:47;;;;;;;3.25;2.58;;;5.70;56.40;;;4.05;60.56;99948.31;8122781;29;20138;-80
2021/12/04 00:25:09;;;;;;;3.03;2.38;;;5.70;56.60;;;3.97;60.51;99944.31;8117361;29;20040;-78
2021/12/04 00:29:31;;;;;;;2.65;2.38;;;5.60;56.60;;;3.99;60.59;99939.91;8123723;29;20126;-81
2021/12/04 00:33:53;;;;;;;2.50;2.25;;;5.70;56.60;;;3.98;60.58;99938.22;8137807;29;20506;-79
2021/12/04 00:52:12;;;;;;;2.42;2.13;;;5.70;56.80;;;3.91;60.64;99921.31;8141157;29;20048;-81
2021/12/04 00:56:34;;;;;;;3.42;3.13;;;5.60;56.80;;;4.03;60.87;99944.97;8142886;29;20476;-81
2021/12/04 01:00:56;;;;;;;2.95;2.17;;;5.70;57.10;;;3.96;60.88;99934.03;8129423;29;20126;-81
2021/12/04 01:05:18;;;;;;;2.28;2.08;;;5.70;56.80;;;4.01;60.87;99933.84;8120725;29;20481;-81
2021/12/04 01:09:40;;;;;;;2.80;2.10;;;5.70;56.80;;;3.98;60.91;99927.91;8136047;29;20576;-81
2021/12/04 01:14:04;;;;;;;2.33;2.10;;;5.70;56.90;;;3.96;61.07;99918.53;8134013;29;20120;-82
2021/12/04 01:18:26;;;;;;;3.72;3.33;;;5.70;56.90;;;3.94;61.07;99918.63;8138314;29;20127;-81
2021/12/04 01:22:47;;;;;;;2.97;2.70;;;5.70;57.60;;;3.94;61.12;99923.78;8101534;29;20123;-81
2021/12/04 01:27:10;;;;;;;3.38;2.70;;;5.70;57.20;;;3.97;61.10;99926.25;8135518;29;20050;-81
2021/12/04 01:31:32;;;;;;;3.10;2.33;;;5.70;57.10;;;3.98;61.13;99925.31;8132470;29;20131;-82
2021/12/04 01:35:54;;;;;;;2.65;2.28;;;5.70;57.10;;;4.03;60.88;99926.88;8129651;29;20131;-81
2021/12/04 01:40:17;;;;;;;2.75;2.53;;;5.70;57.10;;;4.01;61.10;99920.94;8114237;29;20056;-82
2021/12/04 01:44:39;;;;;;;3.15;2.03;;;5.70;57.10;;;4.05;60.96;99925.06;8123127;29;20147;-80
2021/12/04 01:49:01;;;;;;;2.67;2.47;;;5.70;57.10;;;4.06;60.98;99926.75;8132409;29;20131;-82
2021/12/04 01:53:25;;;;;;;2.55;2.35;;;5.60;57.00;;;3.98;60.96;99909.81;8121950;29;20123;-82
2021/12/04 01:57:47;;;;;;;3.33;2.58;;;5.70;57.30;;;4.02;61.15;99914.84;8135020;29;20142;-81
2021/12/04 02:02:09;;;;;;;3.13;2.70;;;5.70;57.10;;;4.05;61.14;99919.91;8133300;29;20040;-81
2021/12/04 02:06:30;;;;;;;4.10;2.95;;;5.70;57.30;;;4.03;61.44;99914.81;8136782;29;20044;-82
2021/12/04 02:10:57;;;;;;;2.72;2.53;;;5.70;57.40;;;3.98;61.24;99902.06;8115361;29;20135;-82
2021/12/04 02:15:20;;;;;;;2.53;2.25;;;5.70;57.30;;;4.04;61.19;99903.56;8138201;29;20131;-83
2021/12/04 02:19:47;;;;;;;2.90;2.60;;;5.70;57.20;;;4.06;61.17;99899.19;8135658;29;20127;-83
2021/12/04 02:24:08;;;;;;;2.47;2.28;;;5.70;57.40;;;3.99;61.49;99897.75;8142317;29;20134;-83
2021/12/04 02:28:31;;;;;;;2.10;1.98;;;5.70;57.20;;;4.01;61.50;99892.53;8127961;29;20317;-83
2021/12/04 02:32:53;;;;;;;3.10;2.20;;;5.60;57.20;;;4.06;61.21;99896.59;8128365;29;20131;-83
2021/12/04 02:37:15;;;;;;;2.97;2.47;;;5.70;57.30;;;4.05;61.20;99879.44;8142995;29;20144;-84
2021/12/04 02:41:37;;;;;;;2.05;1.90;;;5.80;57.50;;;4.06;61.65;99890.59;8139478;29;20586;-84
2021/12/04 02:45:58;;;;;;;2.55;2.35;;;5.70;57.40;;;4.04;61.22;99884.66;8125508;29;20056;-84
2021/12/04 02:50:20;;;;;;;3.17;2.38;;;5.80;57.40;;;4.09;61.39;99880.13;8122072;29;20129;-84
2021/12/04 02:54:42;;;;;;;2.90;2.33;;;5.80;57.40;;;4.09;61.25;99877.53;8120764;29;20139;-84
2021/12/04 02:59:04;;;;;;;2.45;2.17;;;5.80;57.40;;;4.14;61.50;99873.84;8106263;29;20040;-83
2021/12/04 03:03:26;;;;;;;3.80;2.47;;;5.80;57.40;;;4.09;61.39;99862.03;8111584;29;20130;-82
2021/12/04 03:07:48;;;;;;;3.00;2.22;;;5.80;57.50;;;4.08;61.34;99847.44;8111923;29;20397;-83
2021/12/04 03:12:11;;;;;;;3.00;2.80;;;5.80;57.30;;;4.09;61.13;99843.97;8111856;29;20142;-83
2021/12/04 03:16:35;;;;;;;6.07;2.92;;;5.80;57.60;;;4.10;61.45;99832.72;8113263;29;20131;-82
2021/12/04 03:20:59;;;;;;;2.38;2.17;;;5.80;57.50;;;4.12;61.49;99830.91;8114685;29;20135;-83
2021/12/04 03:25:20;;;;;;;3.45;2.80;;;5.80;57.50;;;4.14;61.58;99831.69;8138324;29;20048;-83
2021/12/04 03:29:48;;;;;;;3.58;2.58;;;5.90;57.50;;;4.09;61.56;99829.28;8113397;29;20141;-83
2021/12/04 03:43:30;;;;;;;3.70;2.58;;;5.80;57.40;;;4.09;61.75;99824.13;8125178;29;20044;-85
2021/12/04 03:47:56;;;;;;;2.33;2.13;;;5.80;57.60;;;4.10;61.76;99828.38;8117603;29;20058;-85
2021/12/04 03:52:17;;;;;;;5.47;2.40;;;5.80;57.50;;;4.12;61.92;99823.16;8126459;29;20131;-84
2021/12/04 03:56:39;;;;;;;2.17;1.98;;;5.80;57.50;;;4.16;61.64;99835.06;8123836;29;20139;-84
2021/12/04 04:01:01;;;;;;;2.38;2.17;;;5.80;57.50;;;4.13;61.72;99822.25;8110593;29;20063;-85
2021/12/04 04:05:22;;;;;;;2.80;2.20;;;5.90;57.50;;;4.17;61.49;99827.22;8110074;29;20056;-85
2021/12/04 04:09:44;;;;;;;2.35;2.00;;;5.90;57.60;;;4.18;61.68;99825.47;8127853;29;20052;-86
2021/12/04 04:14:06;;;;;;;4.75;2.38;;;5.90;57.50;;;4.24;61.95;99829.53;8111592;29;20127;-85
2021/12/04 04:18:31;;;;;;;2.30;2.10;;;5.90;57.70;;;4.20;61.52;99815.91;8118859;29;20581;-86
2021/12/04 04:22:52;;;;;;;2.40;2.20;;;5.80;57.50;;;4.16;61.89;99804.06;8103890;29;20041;-85
2021/12/04 04:27:14;;;;;;;3.30;2.38;;;5.90;57.50;;;4.24;61.85;99816.59;8113659;29;20051;-86
2021/12/04 04:31:45;;;;;;;2.47;2.20;;;5.90;57.70;;;4.29;61.91;99825.00;8124179;29;20572;-86
2021/12/04 04:36:24;;;;;;;2.53;2.33;;;5.90;57.70;;;4.24;61.75;99811.44;8135488;29;20036;-86
2021/12/04 04:59:51;;;;;;;3.55;2.03;;;5.90;57.60;;;4.29;61.62;99794.81;8122161;29;20577;-85
2021/12/04 05:13:33;;;;;;;1.80;1.70;;;6.00;57.60;;;4.28;61.96;99782.81;8122142;29;20134;-85
2021/12/04 05:18:07;;;;;;;2.63;2.28;;;6.00;57.50;;;4.30;61.61;99781.00;8106612;29;20135;-85
2021/12/04 05:22:30;;;;;;;3.15;2.85;;;6.00;57.70;;;4.32;61.60;99783.50;8126269;29;20159;-84
2021/12/04 05:26:52;;;;;;;2.80;2.47;;;5.90;57.80;;;4.33;61.95;99792.97;8113442;29;20054;-85
2021/12/04 05:31:14;;;;;;;2.53;2.30;;;6.00;57.70;;;4.24;62.01;99781.28;8135563;29;20134;-85
2021/12/04 05:35:36;;;;;;;2.60;2.40;;;6.00;57.70;;;4.33;61.81;99791.22;8120951;29;20147;-84
2021/12/04 05:39:57;;;;;;;3.15;2.15;;;6.00;57.80;;;4.34;61.91;99789.47;8122782;29;20451;-84
2021/12/04 05:44:25;;;;;;;2.40;2.20;;;6.00;57.60;;;4.29;62.01;99789.66;8106462;29;20138;-86
2021/12/04 05:53:19;;;;;;;2.28;2.08;;;6.00;57.90;;;4.32;62.00;99786.97;8124412;29;20147;-85
2021/12/04 05:57:42;;;;;;;2.70;1.75;;;6.00;57.70;;;4.37;62.07;99787.56;8114475;29;20576;-84
2021/12/04 06:02:04;;;;;;;2.30;2.10;;;6.00;57.60;;;4.33;61.88;99780.88;8126109;29;20160;-83
2021/12/04 06:06:27;;;;;;;1.85;1.75;;;6.00;57.90;;;4.32;62.16;99768.88;8255649;23;20771;-85
2021/12/04 06:10:49;;;;;;;2.58;2.38;;;6.00;57.60;;;4.32;62.01;99779.22;8273233;28;20133;-86
2021/12/04 06:15:11;;;;;;;3.22;2.30;;;6.00;57.60;;;4.35;62.17;99779.06;8274937;28;20141;-88
2021/12/04 06:24:12;;;;;;;2.58;2.38;;;6.10;57.80;;;4.27;61.96;99773.41;8272647;28;20546;-88
2021/12/04 06:28:35;;;;;;;2.85;2.58;;;6.00;57.60;;;4.32;61.92;99774.03;8275050;28;20145;-87
2021/12/04 06:32:57;;;;;;;2.85;2.42;;;6.00;57.70;;;4.30;61.75;99770.69;8260688;28;20570;-88
2021/12/04 06:37:19;;;;;;;4.32;3.00;;;5.90;57.70;;;4.30;61.81;99799.09;8269800;28;20254;-87
2021/12/04 06:41:41;;;;;;;3.95;2.88;;;6.00;57.80;;;4.29;62.23;99778.47;8252136;28;20045;-87
2021/12/04 06:46:05;;;;;;;2.83;2.33;;;6.30;58.00;;;4.27;62.16;99775.16;8292258;28;20046;-87
2021/12/04 06:50:40;;;;;;;2.35;2.15;;;6.10;57.90;;;4.33;62.24;99780.88;8245089;28;20052;-88
2021/12/04 06:55:53;;;;;;;2.05;1.90;;;6.00;57.80;;;4.35;62.06;99783.41;8478647;23;20069;-96
2021/12/04 07:00:15;;;;;;;3.90;3.50;;;5.90;57.80;;;4.02;62.02;99728.88;8298687;28;20136;-93
2021/12/04 07:04:37;;;;;;;3.60;2.85;;;6.10;58.20;;;4.33;62.40;99765.38;8276501;28;20106;-91
2021/12/04 07:08:59;;;;;;;3.33;2.17;;;6.00;57.90;;;4.32;62.38;99762.84;8264135;28;20418;-90
2021/12/04 07:13:21;;;;;;;3.00;2.63;;;6.10;57.90;;;4.32;62.25;99761.13;8289094;28;20133;-91
2021/12/04 07:17:43;;;;;;;2.53;2.33;;;6.00;58.10;;;4.39;62.04;99770.25;8277667;28;20056;-92
2021/12/04 07:22:07;;;;;;;2.70;2.30;;;6.00;57.90;;;4.38;62.00;99781.50;8296220;28;20121;-92
2021/12/04 07:26:29;;;;;;;2.60;2.40;;;6.10;58.00;;;4.39;62.06;99769.41;8295390;28;20498;-94
2021/12/04 07:30:51;;;;;;;3.60;2.67;;;6.00;58.10;;;4.31;62.36;99762.00;8302180;28;20121;-92
2021/12/04 07:35:13;;;;;;;5.18;3.83;;;6.00;58.00;;;4.39;61.95;99770.25;8261382;28;20135;-92
2021/12/04 07:39:35;;;;;;;3.63;3.33;;;6.00;58.00;;;4.31;62.36;99761.19;8277428;28;20124;-95
2021/12/04 08:28:24;;;;;;;4.72;3.63;;;6.10;58.10;;;3.96;62.07;99709.31;9462804;23;20471;-94
2021/12/04 08:32:46;;;;;;;4.38;3.97;;;6.20;58.20;;;4.44;61.92;99781.22;8282445;28;20157;-90
2021/12/04 08:37:08;;;;;;;4.00;3.05;;;6.10;58.10;;;4.50;62.02;99784.44;8296276;28;20132;-89
2021/12/04 08:41:30;;;;;;;4.60;3.35;;;6.20;58.10;;;4.50;62.62;99781.84;8288235;28;20124;-92
2021/12/04 08:45:53;;;;;;;3.78;3.22;;;6.20;58.10;;;4.46;62.51;99772.59;8295629;28;20148;-94
2021/12/04 08:50:25;;;;;;;6.35;4.10;;;6.10;58.00;;;4.48;62.36;99786.25;8276012;28;20136;-95
2021/12/04 08:54:53;;;;;;;3.38;3.08;;;6.10;58.20;;;4.17;62.11;99757.47;8864104;23;20081;-92
2021/12/04 10:34:31;;;;;;;5.65;4.30;;;6.50;58.20;;;4.46;62.80;99701.03;8286593;28;20125;-89
2021/12/04 10:38:54;;;;;;;5.72;4.60;;;6.30;58.20;;;4.82;63.03;99746.75;8267031;28;20124;-87
2021/12/04 10:43:25;;;;;;;4.00;3.58;;;6.50;58.30;;;4.77;62.51;99741.78;8276537;28;20076;-86
2021/12/04 10:47:56;;;;;;;5.28;4.15;;;6.50;58.20;;;4.91;62.66;99745.47;8277858;28;20508;-83
2021/12/04 10:57:17;;;;;;;4.53;3.75;;;6.60;58.30;;;4.88;62.44;99725.75;8276847;28;20042;-82
2021/12/04 11:20:49;;;;;;;5.70;4.70;;;6.70;58.20;;;4.95;62.45;99690.09;8280141;28;20052;-85
2021/12/04 11:25:41;;;;;;;4.40;4.00;;;6.70;58.20;;;5.00;62.80;99691.56;8263676;28;20060;-87
2021/12/04 11:35:18;;;;;;;5.32;4.35;;;6.70;58.10;;;4.96;62.98;99666.72;8267712;28;20057;-85
2021/12/04 11:48:39;;;;;;;7.32;4.60;;;6.70;58.20;;;4.98;62.65;99664.09;8273354;28;20049;-86
2021/12/04 11:53:08;;;;;;;5.00;3.88;;;6.70;58.30;;;4.78;62.36;99623.66;8259422;28;20046;-86
2021/12/04 11:57:34;;;;;;;5.13;4.60;;;6.60;58.10;;;5.05;63.04;99662.84;8274750;28;20044;-86
2021/12/04 12:02:03;;;;;;;4.03;3.63;;;6.80;58.30;;;4.99;62.81;99660.56;8254010;28;20049;-84
2021/12/04 12:06:43;;;;;;;4.88;3.67;;;6.70;58.20;;;4.99;62.87;99645.88;8280646;28;20037;-85
2021/12/04 12:11:24;;;;;;;4.20;3.80;;;6.70;58.30;;;4.96;62.86;99637.44;8289824;28;20064;-86
2021/12/04 12:16:26;;;;;;;5.43;4.35;;;6.70;58.30;;;4.97;63.07;99644.28;8280783;28;20053;-84
2021/12/04 12:20:54;;;;;;;4.97;4.20;;;6.80;58.30;;;5.08;62.67;99649.78;8275203;28;20391;-84
2021/12/04 12:40:12;;;;;;;4.78;3.42;;;6.70;58.10;;;4.98;62.75;99628.69;8288609;28;20513;-84
2021/12/04 12:44:34;;;;;;;6.07;4.90;;;6.70;58.20;;;4.93;63.00;99611.72;8263770;28;20081;-83
2021/12/04 12:48:56;;;;;;;3.65;3.35;;;6.70;58.20;;;5.05;62.79;99631.78;8266316;28;20049;-85
2021/12/04 12:53:26;;;;;;;4.43;3.67;;;6.70;58.10;;;5.10;62.78;99640.16;8267618;28;20631;-84
2021/12/04 12:57:48;;;;;;;5.05;3.75;;;6.70;58.20;;;5.10;62.84;99632.41;8292066;28;20053;-85
2021/12/04 13:11:54;;;;;;;5.45;4.95;;;6.80;58.10;;;5.05;63.07;99624.03;8293269;28;20041;-84
2021/12/04 13:16:30;;;;;;;4.57;4.00;;;6.80;58.30;;;4.98;62.76;99628.69;8284238;28;20049;-84
2021/12/04 13:20:58;;;;;;;4.93;4.25;;;6.70;58.10;;;4.90;62.70;99623.06;8287130;28;20056;-85
2021/12/04 13:25:20;;;;;;;5.30;4.65;;;6.70;58.10;;;4.97;62.89;99634.78;8291831;28;20037;-84
2021/12/04 13:29:48;;;;;;;5.57;5.00;;;6.70;58.10;;;5.08;62.88;99654.97;8286367;28;20064;-84
2021/12/04 13:34:13;;;;;;;6.03;4.95;;;6.70;58.10;;;5.01;62.95;99638.06;8286554;28;20041;-85
2021/12/04 13:38:35;;;;;;;6.07;5.57;;;6.80;58.10;;;5.02;62.82;99638.00;8280842;28;20414;-85
2021/12/04 13:42:57;;;;;;;5.18;4.40;;;6.80;58.10;;;5.07;62.42;99648.09;8293939;28;20461;-84
2021/12/04 13:47:21;;;;;;;4.90;4.10;;;6.80;58.10;;;5.07;62.79;99645.50;8288548;28;20042;-85
2021/12/04 13:51:55;;;;;;;5.43;4.22;;;6.70;58.00;;;5.00;62.65;99637.22;8275240;28;20528;-84
2021/12/04 13:56:22;;;;;;;4.78;4.05;;;6.70;58.10;;;5.02;62.72;99626.78;8284972;28;20048;-85
2021/12/04 14:00:44;;;;;;;5.38;4.57;;;6.80;58.10;;;5.06;62.78;99625.72;8279177;28;20054;-85
2021/12/04 14:05:08;;;;;;;4.75;4.25;;;6.70;58.00;;;5.08;62.49;99623.91;8259908;28;20049;-85
2021/12/04 14:09:38;;;;;;;5.00;4.45;;;6.80;58.00;;;5.00;62.97;99616.53;8269954;28;20399;-84
2021/12/04 14:14:13;;;;;;;4.93;4.10;;;6.70;58.00;;;4.91;62.74;99600.63;8275481;28;20048;-86
2021/12/04 14:18:37;;;;;;;6.75;5.22;;;6.70;58.00;;;4.95;62.82;99608.16;8270506;28;20053;-86
2021/12/04 14:23:00;;;;;;;6.50;5.18;;;6.70;58.00;;;4.51;62.53;99538.81;8267534;23;20065;-86
2021/12/04 14:27:34;;;;;;;4.47;4.05;;;6.70;58.10;;;4.62;63.08;99551.19;8288689;28;20046;-86
2021/12/04 14:31:56;;;;;;;6.15;4.45;;;6.60;58.00;;;4.46;62.67;99527.03;8273848;28;20057;-84
2021/12/04 14:36:22;;;;;;;4.47;4.05;;;6.70;58.10;;;4.87;62.67;99584.44;8277667;28;20417;-83
2021/12/04 14:40:58;;;;;;;;;;;6.60;58.10;;;4.93;62.49;99585.88;8278575;28;20044;-82
2021/12/04 14:45:24;;;;;;;4.73;4.03;;;6.60;57.90;;;4.82;62.97;99561.38;8264310;28;19922;-84
2021/12/04 14:49:51;;;;;;;5.60;4.13;;;6.60;57.80;;;4.90;62.89;99593.78;8249217;28;20050;-83
2021/12/04 14:54:13;;;;;;;4.60;3.75;;;6.60;57.90;;;4.90;62.58;99598.97;8280979;28;20052;-84
2021/12/04 14:58:35;;;;;;;4.43;4.00;;;6.60;57.90;;;4.79;62.78;99591.72;8269783;28;20046;-84
2021/12/04 15:03:28;;;;;;;5.63;4.40;;;6.50;57.90;;;4.83;62.77;99604.44;8304707;28;20041;-84
2021/12/04 15:08:04;;;;;;;5.25;4.63;;;6.50;57.90;;;4.77;62.85;99593.56;8292925;28;20053;-85
2021/12/04 15:12:29;;;;;;;5.00;3.90;;;6.50;58.00;;;4.77;62.84;99584.03;8284978;28;20053;-84
2021/12/04 15:16:58;;;;;;;4.40;3.90;;;6.50;57.90;;;4.84;63.00;99600.94;8279300;28;20047;-83
2021/12/04 15:21:19;;;;;;;4.30;3.55;;;6.50;58.00;;;4.71;62.59;99583.50;8267512;28;20430;-83
2021/12/04 15:25:44;;;;;;;5.80;3.67;;;6.40;57.90;;;4.78;62.78;99597.78;8266473;28;20162;-83
2021/12/04 15:30:11;;;;;;;4.40;3.92;;;6.50;57.90;;;4.79;62.95;99599.50;8285926;28;20055;-83
2021/12/04 15:34:52;;;;;;;5.72;4.40;;;6.50;57.90;;;4.73;63.02;99592.88;8280621;28;20045;-84
2021/12/04 15:39:30;;;;;;;4.80;4.30;;;6.50;58.00;;;4.79;62.74;99605.50;8273677;28;20046;-83
2021/12/04 15:44:27;;;;;;;4.72;4.22;;;6.50;58.00;;;4.74;62.96;99607.47;8274170;28;20045;-83
2021/12/04 15:53:33;;;;;;;4.28;3.85;;;6.50;58.00;;;4.74;62.79;99602.28;8283804;28;20071;-84
2021/12/04 15:58:00;;;;;;;4.57;3.85;;;6.30;57.80;;;4.71;62.97;99612.78;8281757;28;20045;-81
2021/12/04 16:02:29;;;;;;;5.22;4.68;;;6.50;57.90;;;4.72;63.11;99600.69;8272534;28;20041;-82
2021/12/04 16:06:54;;;;;;;7.70;5.03;;;6.50;58.00;;;4.78;62.68;99614.19;8276602;28;20060;-83
2021/12/04 16:11:16;;;;;;;5.40;4.27;;;6.50;58.30;;;4.74;62.99;99604.88;8262734;28;20042;-84
2021/12/04 16:15:39;;;;;;;6.35;4.00;;;6.50;57.90;;;4.75;62.81;99610.88;8266088;28;20288;-83
2021/12/04 16:20:10;;;;;;;5.90;4.70;;;6.60;58.00;;;4.62;63.07;99595.16;8270105;28;20049;-82
2021/12/04 16:24:42;;;;;;;5.43;4.60;;;6.40;57.90;;;4.73;63.23;99612.72;8295571;28;20057;-85
2021/12/04 16:29:10;;;;;;;5.55;4.65;;;6.40;58.00;;;4.77;62.79;99611.66;8280429;28;20041;-84
2021/12/04 16:37:56;;;;;;;6.43;5.38;;;6.50;58.00;;;4.76;63.02;99597.06;8259950;28;20052;-83
2021/12/04 16:42:18;;;;;;;6.45;4.70;;;6.50;57.90;;;4.76;62.84;99587.53;8299979;28;20520;-84
2021/12/04 16:46:41;;;;;;;5.13;4.15;;;6.40;57.90;;;4.76;63.02;99597.06;8291254;28;20055;-84
2021/12/04 17:00:11;;;;;;;5.05;4.32;;;6.40;57.90;;;4.66;63.19;99581.97;8275373;28;20051;-83
2021/12/04 17:04:34;;;;;;;5.60;4.10;;;6.40;58.00;;;4.66;63.11;99583.72;8270461;28;20414;-86
2021/12/04 17:08:56;;;;;;;6.07;4.50;;;6.30;57.90;;;4.62;63.25;99579.66;8271856;28;20056;-84
2021/12/04 17:13:18;;;;;;;6.88;4.60;;;6.30;57.90;;;4.59;62.86;99572.00;8278030;28;20509;-83
2021/12/04 17:17:43;;;;;;;7.03;5.18;;;6.30;57.90;;;4.63;63.19;99582.13;8282140;28;20422;-83
2021/12/04 17:22:07;;;;;;;7.82;5.20;;;6.30;58.00;;;4.56;63.12;99577.34;8271084;28;20048;-85
2021/12/04 17:26:29;;;;;;;10.43;6.47;;;6.30;58.00;;;4.59;63.01;99596.13;8277404;28;20051;-83
2021/12/04 17:30:51;;;;;;;12.05;7.32;;;6.30;58.00;;;4.63;63.11;99592.47;8257166;28;20447;-84
2021/12/04 17:35:16;;;;;;;13.60;8.10;;;6.30;58.00;;;4.59;62.91;99579.75;8260396;28;20042;-83
2021/12/04 17:39:38;;;;;;;10.80;6.80;;;6.30;58.00;;;4.52;62.99;99563.72;8255611;28;20048;-83
2021/12/04 17:44:03;;;;;;;12.30;8.07;;;6.30;58.00;;;4.59;62.53;99575.47;8247378;28;20046;-83
2021/12/04 17:48:29;;;;;;;10.07;6.35;;;6.30;58.00;;;4.42;63.38;99553.00;8229300;28;20053;-83
2021/12/04 17:52:54;;;;;;;6.22;4.60;;;6.30;58.00;;;4.54;63.18;99550.75;8297674;28;20517;-85
2021/12/04 17:57:16;;;;;;;8.32;4.50;;;6.30;58.00;;;4.57;63.08;99545.41;8294336;28;20045;-85
2021/12/04 18:01:47;;;;;;;6.38;4.38;;;6.30;58.00;;;4.54;63.11;99551.56;8271940;28;20050;-86
2021/12/04 18:06:15;;;;;;;5.75;4.75;;;6.30;58.00;;;4.59;63.01;99566.84;8275953;28;20067;-84
2021/12/04 18:10:37;;;;;;;7.05;5.00;;;6.30;58.00;;;4.59;62.91;99575.47;8304708;28;20350;-85
2021/12/04 18:15:00;;;;;;;11.23;7.10;;;6.30;58.00;;;4.50;63.29;99559.53;8272296;28;20486;-86
2021/12/04 18:19:25;;;;;;;5.60;4.97;;;6.30;58.10;;;4.55;62.92;99566.16;8302507;28;20056;-85
2021/12/04 18:23:48;;;;;;;5.35;4.82;;;6.30;58.00;;;4.56;63.17;99559.25;8264433;28;20052;-84
2021/12/04 18:28:11;;;;;;;6.18;4.28;;;6.30;57.90;;;4.54;62.71;99566.25;8278017;28;20052;-86
2021/12/04 18:32:33;;;;;;;5.90;4.65;;;6.10;57.90;;;4.49;63.16;99563.06;8264696;28;20417;-84
2021/12/04 18:36:55;;;;;;;6.53;5.10;;;6.50;58.00;;;4.54;62.90;99566.25;8271210;28;20036;-85
2021/12/04 18:41:20;;;;;;;5.03;4.32;;;6.00;57.90;;;4.50;62.98;99564.72;8255489;28;20079;-86
2021/12/04 18:45:42;;;;;;;5.55;4.78;;;6.20;57.90;;;4.51;63.17;99568.97;8256302;28;20052;-85
2021/12/04 18:50:06;;;;;;;5.60;4.10;;;6.20;58.00;;;4.49;62.91;99563.06;8272293;28;20049;-86
2021/12/04 18:54:28;;;;;;;8.70;5.28;;;6.20;58.00;;;4.41;63.04;99551.34;8267570;28;20048;-86
2021/12/04 18:58:51;;;;;;;5.80;4.32;;;6.10;58.00;;;4.43;63.19;99549.50;8280471;28;20049;-86
2021/12/04 19:03:13;;;;;;;6.35;4.28;;;6.10;58.00;;;4.40;63.17;99556.56;8265038;28;20060;-85
2021/12/04 19:07:36;;;;;;;5.13;4.43;;;6.10;58.10;;;4.40;62.96;99544.50;8271488;28;20058;-85
2021/12/04 19:12:00;;;;;;;6.50;3.90;;;6.20;58.00;;;4.37;62.95;99544.63;8243438;28;20034;-84
2021/12/04 19:16:23;;;;;;;5.88;4.00;;;6.10;58.00;;;4.43;63.20;99554.69;8251069;28;20045;-85
2021/12/04 19:20:48;;;;;;;7.38;4.53;;;6.00;57.90;;;4.43;62.98;99543.53;8261338;28;20045;-86
2021/12/04 19:25:18;;;;;;;6.22;4.38;;;6.10;58.00;;;4.33;63.35;99539.69;8242214;28;20046;-85
2021/12/04 19:29:44;;;;;;;7.28;3.80;;;6.10;58.00;;;4.32;63.22;99531.13;8235316;28;20046;-84
2021/12/04 19:34:23;;;;;;;5.75;4.38;;;6.10;58.00;;;4.42;63.24;99550.41;8247939;28;20053;-86
2021/12/04 19:52:52;;;;;;;4.63;3.63;;;6.10;58.00;;;4.32;63.36;99505.28;8257635;28;20037;-86
2021/12/04 19:57:20;;;;;;;4.65;3.78;;;6.10;58.00;;;4.37;63.06;99512.78;8267296;28;20046;-87
2021/12/04 20:01:54;;;;;;;4.78;3.80;;;6.10;57.90;;;4.34;62.98;99502.59;8282161;28;20041;-87
2021/12/04 20:06:35;;;;;;;5.40;3.88;;;6.00;57.90;;;4.29;63.13;99497.66;8263838;28;20050;-86
2021/12/04 20:15:40;;;;;;;6.00;4.25;;;6.00;57.80;;;4.22;62.96;99499.72;8263148;28;20454;-86
2021/12/04 20:20:07;;;;;;;5.10;3.88;;;5.90;58.00;;;4.13;63.14;99469.16;8268524;28;20056;-87
2021/12/04 20:24:36;;;;;;;4.22;3.28;;;5.90;57.90;;;4.18;63.03;99477.50;8262973;28;20065;-86
2021/12/04 20:29:14;;;;;;;4.88;3.70;;;5.90;58.20;;;4.19;63.03;99478.38;8272272;28;20041;-87
2021/12/04 20:33:48;;;;;;;4.10;3.40;;;5.90;57.80;;;4.20;62.88;99491.19;8269023;28;20046;-87
2021/12/04 20:52:39;;;;;;;3.78;3.10;;;5.90;57.70;;;4.14;63.02;99512.16;8269027;28;20041;-86
2021/12/04 21:11:26;;;;;;;4.20;3.42;;;5.80;57.70;;;4.03;62.86;99496.34;8258370;28;20045;-85
2021/12/04 21:40:03;;;;;;;7.03;3.85;;;5.70;57.90;;;3.89;63.17;99497.03;8247309;28;20160;-87
2021/12/04 21:53:16;;;;;;;4.72;3.97;;;5.60;57.80;;;3.92;63.07;99496.03;8270256;28;20054;-87
2021/12/04 21:58:10;;;;;;;6.63;4.00;;;5.60;57.90;;;3.89;63.33;99485.81;8247736;28;20046;-86
2021/12/04 22:12:41;;;;;;;7.85;5.18;;;5.60;57.80;;;3.90;62.98;99484.94;8262269;28;20058;-88
2021/12/04 22:16:41;;;;;;;8.57;5.75;;;5.60;57.80;;;3.88;63.43;99485.00;8263741;28;20101;-87
2021/12/04 22:58:18;;;;;;;10.20;6.47;;;5.70;57.90;;;3.85;63.50;99510.13;8248580;28;20048;-87
2021/12/04 23:02:42;;;;;;;9.90;6.05;;;5.50;57.70;;;3.47;63.34;99443.06;8246279;28;20046;-87
2021/12/04 23:12:03;;;;;;;8.85;6.15;;;5.70;57.80;;;3.43;63.38;99442.38;8262949;28;20117;-88
2021/12/04 23:35:00;;;;;;;10.25;5.85;;;5.60;57.80;;;3.69;63.00;99502.28;8272740;28;20042;-83
2021/12/04 23:44:20;;;;;;;9.65;6.00;;;5.50;57.80;;;3.64;63.47;99512.78;8259151;28;20047;-83
2021/12/04 23:53:42;;;;;;;10.15;6.82;;;5.40;58.00;;;3.58;63.10;99512.25;8264862;28;20037;-83
